Time;durP1;ratioP1;P1;durP2;ratioP2;P2;SDS_P1;SDS_P2;PMS_P1;PMS_P2;Temp;Humidity;BMP_temperature;BMP_pressure;BME280_temperature;BME280_humidity;BME280_pressure;Samples;Min_cycle;Max_cycle;Signal;HPM_P1;HPM_P2
2023/03/13 00:01:19;;;;;;;0.60;0.60;;;;;;;6.09;54.60;95431.28;5113409;28;20535;-55
2023/03/13 00:03:48;;;;;;;0.40;0.37;;;;;;;5.76;56.75;95434.63;5114343;28;20863;-55
2023/03/13 00:06:17;;;;;;;0.30;0.20;;;;;;;5.55;56.77;95437.13;5113949;28;20934;-55
2023/03/13 00:08:47;;;;;;;1.23;0.40;;;;;;;5.76;56.58;95441.72;5113945;28;20545;-55
2023/03/13 00:11:16;;;;;;;0.30;0.20;;;;;;;5.88;56.18;95439.84;5114014;28;20546;-55
2023/03/13 00:13:44;;;;;;;0.30;0.20;;;;;;;5.79;56.24;95449.16;5113930;28;20581;-55
2023/03/13 00:16:15;;;;;;;0.40;0.30;;;;;;;5.44;57.27;95435.34;5114000;28;20471;-55
2023/03/13 00:18:47;;;;;;;0.30;0.20;;;;;;;5.61;56.80;95449.34;5113582;28;20439;-55
2023/03/13 00:21:17;;;;;;;0.40;0.30;;;;;;;5.43;57.37;95452.94;5113947;28;20471;-55
2023/03/13 00:23:46;;;;;;;0.50;0.50;;;;;;;5.36;57.45;95451.47;5113448;28;20467;-55
2023/03/13 00:26:17;;;;;;;0.30;0.20;;;;;;;4.94;58.59;95459.53;5113339;28;21093;-55
2023/03/13 00:28:46;;;;;;;0.30;0.20;;;;;;;4.86;58.87;95459.88;5113503;28;20430;-55
2023/03/13 00:31:16;;;;;;;0.30;0.20;;;;;;;4.72;59.94;95458.53;5112966;28;20462;-55
2023/03/13 00:33:46;;;;;;;0.30;0.20;;;;;;;4.11;60.25;95355.84;5113394;28;20452;-55
2023/03/13 00:36:16;;;;;;;0.60;0.57;;;;;;;4.70;60.36;95450.09;5113162;28;20499;-55
2023/03/13 00:38:45;;;;;;;0.40;0.30;;;;;;;4.99;59.60;95440.47;5113266;28;20533;-55
2023/03/13 00:41:16;;;;;;;0.30;0.20;;;;;;;4.78;58.89;95446.34;5112864;28;20439;-55
2023/03/13 00:43:45;;;;;;;0.30;0.20;;;;;;;4.20;60.10;95438.44;5113387;28;20434;-55
2023/03/13 00:46:15;;;;;;;0.50;0.30;;;;;;;4.39;59.51;95445.19;5113267;28;20432;-55
2023/03/13 00:48:44;;;;;;;0.40;0.20;;;;;;;4.37;60.22;95452.50;5113050;28;20916;-55
2023/03/13 00:51:14;;;;;;;0.30;0.20;;;;;;;4.62;60.12;95453.06;5112865;28;20428;-55
2023/03/13 00:53:43;;;;;;;0.40;0.30;;;;;;;4.57;60.17;95449.53;5112908;28;20428;-55
2023/03/13 00:56:15;;;;;;;0.97;0.50;;;;;;;4.65;60.11;95457.88;5112885;28;20470;-55
2023/03/13 00:58:45;;;;;;;0.30;0.30;;;;;;;4.60;59.13;95407.88;5112843;28;20436;-55
2023/03/13 01:01:15;;;;;;;0.50;0.50;;;;;;;5.10;59.26;95450.16;5113119;28;20451;-55
2023/03/13 01:03:45;;;;;;;0.30;0.20;;;;;;;4.44;59.40;95366.56;5112709;28;20439;-55
2023/03/13 01:06:16;;;;;;;1.60;0.50;;;;;;;4.95;58.91;95457.72;5113065;28;20423;-55
2023/03/13 01:08:44;;;;;;;0.60;0.60;;;;;;;4.85;59.49;95463.56;5112516;28;20432;-55
2023/03/13 01:11:15;;;;;;;0.50;0.30;;;;;;;4.52;60.01;95447.59;5112266;28;20942;-55
2023/03/13 01:13:44;;;;;;;0.70;0.70;;;;;;;4.60;60.27;95449.88;5112534;28;20429;-55
2023/03/13 01:16:15;;;;;;;1.07;0.50;;;;;;;4.76;60.21;95462.28;5112429;28;20432;-55
2023/03/13 01:18:46;;;;;;;0.40;0.30;;;;;;;4.27;60.90;95465.38;5112407;28;20428;-55
2023/03/13 01:21:18;;;;;;;0.73;0.73;;;;;;;3.82;61.87;95410.75;5112590;28;20434;-56
2023/03/13 01:23:47;;;;;;;0.40;0.30;;;;;;;3.97;61.95;95454.13;5112501;28;20838;-55
2023/03/13 01:26:17;;;;;;;0.30;0.20;;;;;;;3.60;61.94;95370.38;5112339;28;20424;-55
2023/03/13 01:28:45;;;;;;;0.30;0.20;;;;;;;3.82;61.44;95416.00;5112296;28;20436;-55
2023/03/13 01:31:16;;;;;;;0.30;0.20;;;;;;;3.98;62.09;95445.22;5112236;28;20420;-55
2023/03/13 01:33:46;;;;;;;0.40;0.30;;;;;;;4.03;62.49;95469.75;5111788;28;20530;-55
2023/03/13 01:36:15;;;;;;;0.40;0.30;;;;;;;3.65;62.46;95409.81;5111455;28;20454;-55
2023/03/13 01:38:43;;;;;;;0.30;0.20;;;;;;;3.55;62.67;95425.28;5111546;28;20463;-55
2023/03/13 01:41:12;;;;;;;0.30;0.20;;;;;;;4.06;62.53;95477.19;5111843;28;20431;-55
2023/03/13 01:43:42;;;;;;;0.30;0.30;;;;;;;3.97;62.91;95477.72;5111291;28;20424;-55
2023/03/13 01:46:15;;;;;;;0.40;0.20;;;;;;;3.95;62.76;95474.53;5111505;28;20829;-55
2023/03/13 01:48:51;;;;;;;0.83;0.83;;;;;;;3.97;62.63;95480.34;5111361;28;20480;-55
2023/03/13 01:51:24;;;;;;;0.30;0.20;;;;;;;3.98;62.42;95482.75;5111477;28;20477;-55
2023/03/13 01:53:57;;;;;;;0.30;0.20;;;;;;;3.97;61.48;95425.28;5111796;28;20539;-55
2023/03/13 01:56:31;;;;;;;0.30;0.20;;;;;;;4.43;61.09;95480.44;5111189;28;20430;-55
2023/03/13 01:59:04;;;;;;;0.40;0.40;;;;;;;4.22;61.61;95481.78;5111109;28;20924;-55
2023/03/13 02:01:32;;;;;;;0.30;0.30;;;;;;;4.15;61.57;95490.78;5111234;28;20514;-55
2023/03/13 02:04:01;;;;;;;0.30;0.20;;;;;;;4.46;62.52;95491.28;5111900;28;20841;-55
2023/03/13 02:06:33;;;;;;;0.43;0.40;;;;;;;4.16;62.04;95479.25;5111602;28;20993;-55
2023/03/13 02:09:05;;;;;;;0.40;0.33;;;;;;;3.78;62.30;95437.66;5111940;28;20420;-55
2023/03/13 02:11:44;;;;;;;3.60;1.83;;;;;;;4.34;62.18;95495.72;5111542;28;20464;-55
2023/03/13 02:14:13;;;;;;;1.23;0.70;;;;;;;4.62;61.73;95489.81;5111530;28;20928;-55
2023/03/13 02:16:46;;;;;;;1.03;1.03;;;;;;;4.27;60.81;95434.69;5111752;28;20440;-55
2023/03/13 02:19:19;;;;;;;0.30;0.20;;;;;;;4.35;61.56;95497.31;5111861;28;20793;-55
2023/03/13 02:21:54;;;;;;;3.03;0.40;;;;;;;4.41;62.15;95506.09;5111385;28;20957;-55
2023/03/13 02:24:29;;;;;;;0.30;0.20;;;;;;;4.48;61.06;95451.69;5115201;28;20426;-55
2023/03/13 02:26:59;;;;;;;0.50;0.50;;;;;;;4.92;60.32;95498.38;5115785;28;20489;-55
2023/03/13 02:29:28;;;;;;;0.70;0.30;;;;;;;4.99;60.79;95493.00;5115616;28;20434;-55
2023/03/13 02:31:56;;;;;;;0.60;0.60;;;;;;;4.61;60.79;95487.41;5115393;28;20432;-55
2023/03/13 02:34:28;;;;;;;0.40;0.30;;;;;;;4.16;62.55;95508.91;5115557;28;20459;-55
2023/03/13 02:36:58;;;;;;;0.40;0.30;;;;;;;4.12;63.29;95506.97;5115341;28;20477;-55
2023/03/13 02:39:29;;;;;;;0.30;0.30;;;;;;;4.17;62.42;95514.97;5115214;28;20477;-55
2023/03/13 02:42:00;;;;;;;0.50;0.40;;;;;;;4.59;62.17;95521.75;5115350;28;20439;-55
2023/03/13 02:44:29;;;;;;;0.30;0.20;;;;;;;4.67;61.59;95510.13;5115198;28;20481;-55
2023/03/13 02:46:57;;;;;;;0.30;0.20;;;;;;;4.55;62.02;95530.31;5115154;28;20519;-54
2023/03/13 02:49:28;;;;;;;0.70;0.70;;;;;;;4.88;61.53;95531.34;5115158;28;20489;-55
2023/03/13 02:51:59;;;;;;;0.30;0.20;;;;;;;4.99;59.60;95529.75;5114953;28;20432;-55
2023/03/13 02:54:33;;;;;;;0.30;0.20;;;;;;;3.85;60.42;95433.13;5115110;28;20428;-55
2023/03/13 02:57:05;;;;;;;1.37;0.37;;;;;;;4.87;60.51;95540.28;5115277;28;20463;-55
2023/03/13 02:59:34;;;;;;;0.30;0.20;;;;;;;4.58;59.85;95543.78;5114992;28;20424;-55
2023/03/13 03:02:03;;;;;;;0.33;0.20;;;;;;;4.80;59.37;95547.47;5114994;28;20427;-55
2023/03/13 03:04:31;;;;;;;0.30;0.20;;;;;;;5.01;58.21;95541.63;5114859;28;20428;-56
2023/03/13 03:06:59;;;;;;;0.37;0.20;;;;;;;5.24;58.25;95548.72;5114974;28;20793;-56
2023/03/13 03:09:28;;;;;;;0.30;0.30;;;;;;;4.74;57.90;95540.50;5114846;28;20468;-55
2023/03/13 03:11:56;;;;;;;0.40;0.30;;;;;;;5.34;57.20;95559.44;5115233;28;20431;-56
2023/03/13 03:14:26;;;;;;;0.40;0.40;;;;;;;5.37;56.92;95561.63;5114808;28;20419;-55
2023/03/13 03:16:54;;;;;;;0.30;0.30;;;;;;;5.42;56.85;95574.06;5114611;28;20432;-56
2023/03/13 03:19:22;;;;;;;0.30;0.20;;;;;;;5.33;55.98;95528.94;5114795;28;20473;-55
2023/03/13 03:21:51;;;;;;;0.30;0.20;;;;;;;5.53;55.38;95573.25;5114676;28;20526;-54
2023/03/13 03:24:19;;;;;;;0.30;0.30;;;;;;;5.63;55.75;95578.72;5115050;28;20424;-55
2023/03/13 03:26:47;;;;;;;0.40;0.30;;;;;;;5.22;56.75;95584.13;5114754;28;20424;-55
2023/03/13 03:29:16;;;;;;;0.30;0.20;;;;;;;5.43;56.12;95591.44;5114619;28;20428;-55
2023/03/13 03:31:45;;;;;;;0.40;0.30;;;;;;;4.87;56.66;95605.94;5114740;28;20456;-56
2023/03/13 03:34:14;;;;;;;0.30;0.20;;;;;;;4.74;56.81;95527.38;5114717;28;20421;-56
2023/03/13 03:36:42;;;;;;;0.40;0.40;;;;;;;5.03;58.55;95613.13;5114755;28;20499;-55
2023/03/13 03:39:11;;;;;;;0.60;0.30;;;;;;;4.80;58.42;95605.25;5114455;28;21042;-55
2023/03/13 03:41:39;;;;;;;0.30;0.20;;;;;;;5.17;58.24;95621.59;5114731;28;20767;-55
2023/03/13 03:44:08;;;;;;;0.40;0.30;;;;;;;3.83;59.10;95556.56;5114787;28;20782;-56
2023/03/13 03:46:36;;;;;;;0.40;0.30;;;;;;;4.38;59.51;95632.50;5114668;28;20818;-56
2023/03/13 03:49:06;;;;;;;0.80;0.30;;;;;;;4.77;58.66;95626.69;5114251;28;20889;-56
2023/03/13 03:51:34;;;;;;;0.90;0.47;;;;;;;5.00;58.35;95626.75;5114272;28;20427;-55
2023/03/13 03:54:02;;;;;;;0.40;0.20;;;;;;;5.31;57.35;95630.06;5114215;28;20428;-55
2023/03/13 03:56:31;;;;;;;0.97;0.40;;;;;;;4.55;59.21;95616.94;5114475;28;20495;-55
2023/03/13 03:58:59;;;;;;;0.40;0.40;;;;;;;4.34;61.20;95644.47;5114538;28;20467;-56
2023/03/13 04:01:27;;;;;;;0.40;0.40;;;;;;;4.00;61.64;95645.13;5114258;28;20424;-56
2023/03/13 04:03:56;;;;;;;0.50;0.30;;;;;;;4.14;61.48;95630.81;5114100;28;20424;-55
2023/03/13 04:06:25;;;;;;;0.40;0.30;;;;;;;4.49;61.13;95652.75;5093690;28;20824;-55
2023/03/13 04:08:54;;;;;;;0.30;0.20;;;;;;;4.70;60.89;95665.38;5093853;28;20894;-55
2023/03/13 04:11:22;;;;;;;0.33;0.27;;;;;;;4.93;60.22;95652.28;5093720;28;20529;-55
2023/03/13 04:13:50;;;;;;;0.40;0.40;;;;;;;4.53;60.27;95619.78;5094012;28;20417;-55
2023/03/13 04:16:19;;;;;;;0.50;0.30;;;;;;;3.81;62.06;95641.69;5093635;28;20511;-55
2023/03/13 04:18:47;;;;;;;0.40;0.20;;;;;;;4.11;62.12;95667.97;5093247;28;20559;-55
2023/03/13 04:21:16;;;;;;;0.30;0.20;;;;;;;4.09;62.75;95673.44;5093645;28;20924;-55
2023/03/13 04:23:45;;;;;;;0.30;0.30;;;;;;;4.15;61.56;95682.25;5092991;28;20480;-55
2023/03/13 04:26:14;;;;;;;9.63;1.03;;;;;;;4.41;60.85;95658.31;5093054;28;20453;-55
2023/03/13 04:28:42;;;;;;;1.20;0.37;;;;;;;4.71;60.71;95676.66;5093050;28;20448;-55
2023/03/13 04:31:10;;;;;;;0.40;0.30;;;;;;;4.65;60.66;95672.31;5093367;28;20439;-55
2023/03/13 04:33:39;;;;;;;0.57;0.50;;;;;;;4.30;61.13;95662.47;5091936;28;20470;-55
2023/03/13 04:36:08;;;;;;;2.10;0.40;;;;;;;3.76;61.95;95579.44;5093151;28;20417;-55
2023/03/13 04:38:37;;;;;;;0.30;0.23;;;;;;;4.13;61.15;95610.84;5092884;28;20556;-55
2023/03/13 04:41:07;;;;;;;0.30;0.20;;;;;;;4.71;60.29;95698.47;5092869;28;20437;-55
2023/03/13 04:43:35;;;;;;;0.30;0.20;;;;;;;4.03;60.16;95568.59;5092734;28;20539;-55
2023/03/13 04:46:03;;;;;;;0.30;0.20;;;;;;;4.69;60.67;95700.53;5092098;28;20913;-55
2023/03/13 04:48:32;;;;;;;0.47;0.47;;;;;;;4.81;60.78;95703.19;5093130;28;20421;-55
2023/03/13 04:51:00;;;;;;;0.40;0.30;;;;;;;4.68;60.21;95651.66;5092619;28;20482;-55
2023/03/13 04:53:28;;;;;;;1.10;1.03;;;;;;;4.84;59.75;95700.91;5092557;28;20434;-55
2023/03/13 04:55:56;;;;;;;0.40;0.37;;;;;;;4.52;61.35;95717.13;5092695;28;20819;-55
2023/03/13 04:58:26;;;;;;;0.40;0.30;;;;;;;4.82;60.59;95707.41;5092412;28;20503;-55
2023/03/13 05:00:55;;;;;;;0.30;0.20;;;;;;;5.00;60.73;95708.16;5092420;28;20479;-55
2023/03/13 05:03:24;;;;;;;0.30;0.20;;;;;;;4.76;59.95;95677.59;5092592;28;20439;-55
2023/03/13 05:05:52;;;;;;;0.40;0.40;;;;;;;5.01;60.34;95728.13;5092208;28;20433;-55
2023/03/13 05:08:21;;;;;;;0.33;0.23;;;;;;;5.00;59.71;95721.31;5091925;28;20443;-55
2023/03/13 05:10:49;;;;;;;0.40;0.30;;;;;;;4.96;59.79;95727.19;5092216;28;20427;-55
2023/03/13 05:13:17;;;;;;;0.70;0.70;;;;;;;4.97;60.25;95719.13;5092238;28;20763;-56
2023/03/13 05:15:47;;;;;;;0.43;0.40;;;;;;;4.54;60.87;95731.63;5092480;28;20782;-55
2023/03/13 05:18:15;;;;;;;0.40;0.30;;;;;;;4.93;60.25;95738.97;5092278;28;20487;-55
2023/03/13 05:20:44;;;;;;;0.30;0.20;;;;;;;4.89;60.49;95743.06;5092057;28;20508;-55
2023/03/13 05:23:12;;;;;;;6.33;0.80;;;;;;;4.95;60.58;95739.56;5091750;28;20472;-56
2023/03/13 05:25:41;;;;;;;4.03;0.63;;;;;;;4.45;61.05;95740.84;5091845;28;20449;-55
2023/03/13 05:28:09;;;;;;;16.53;0.57;;;;;;;4.46;61.82;95739.78;5092216;28;20952;-55
2023/03/13 05:30:37;;;;;;;0.50;0.50;;;;;;;3.51;62.51;95565.63;5092060;28;20504;-55
2023/03/13 05:33:07;;;;;;;2.87;0.60;;;;;;;4.31;62.13;95750.66;5092032;28;20427;-55
2023/03/13 05:35:36;;;;;;;1.10;1.00;;;;;;;4.10;62.53;95753.72;5091717;28;20444;-55
2023/03/13 05:38:04;;;;;;;0.47;0.47;;;;;;;4.11;62.35;95707.31;5091994;28;20425;-55
2023/03/13 05:40:32;;;;;;;1.67;1.57;;;;;;;3.93;63.11;95752.69;5091881;28;20894;-55
2023/03/13 05:43:01;;;;;;;0.60;0.60;;;;;;;4.01;62.82;95754.22;5091618;28;20521;-55
2023/03/13 05:45:30;;;;;;;0.40;0.40;;;;;;;4.59;61.85;95758.00;5091480;28;20436;-56
2023/03/13 05:47:58;;;;;;;0.40;0.40;;;;;;;4.89;61.04;95764.06;5091401;28;20429;-56
2023/03/13 05:50:28;;;;;;;0.93;0.93;;;;;;;4.88;60.47;95746.72;5091341;28;20909;-56
2023/03/13 05:52:56;;;;;;;0.30;0.30;;;;;;;5.36;59.74;95772.13;5091425;28;20972;-56
2023/03/13 05:55:25;;;;;;;3.53;0.50;;;;;;;5.60;58.44;95763.22;5091529;28;20453;-55
2023/03/13 05:57:53;;;;;;;2.57;0.33;;;;;;;5.79;56.26;95764.75;5091630;28;20434;-55
2023/03/13 06:00:22;;;;;;;1.83;0.97;;;;;;;5.90;56.21;95771.84;5091255;28;20551;-55
2023/03/13 06:02:50;;;;;;;0.30;0.30;;;;;;;6.41;56.31;95757.97;5091478;28;20490;-56
2023/03/13 06:05:18;;;;;;;0.40;0.30;;;;;;;6.42;54.88;95766.66;5091381;28;20518;-55
2023/03/13 06:07:49;;;;;;;0.40;0.30;;;;;;;6.61;54.40;95768.09;5091313;28;20515;-55
2023/03/13 06:10:18;;;;;;;0.30;0.20;;;;;;;6.60;53.86;95777.06;5091303;28;20450;-56
2023/03/13 06:12:53;;;;;;;0.67;0.67;;;;;;;7.15;54.21;95769.41;5091169;28;20429;-56
2023/03/13 06:15:21;;;;;;;0.87;0.40;;;;;;;7.62;55.90;95766.28;5091246;28;20419;-55
2023/03/13 06:17:50;;;;;;;3.83;0.40;;;;;;;8.34;51.61;95766.31;5091164;28;20525;-55
2023/03/13 06:20:18;;;;;;;0.40;0.30;;;;;;;9.22;62.53;95762.59;5091205;28;20467;-61
2023/03/13 06:22:48;;;;;;;0.40;0.30;;;;;;;9.75;55.88;95764.41;5090961;28;20479;-60
2023/03/13 06:25:17;;;;;;;0.30;0.30;;;;;;;9.17;53.34;95768.63;5091134;28;20426;-57
2023/03/13 06:27:45;;;;;;;0.30;0.20;;;;;;;10.22;64.13;95769.81;5091115;28;20438;-57
2023/03/13 06:30:14;;;;;;;0.37;0.30;;;;;;;10.61;55.43;95765.78;5093157;28;20528;-58
2023/03/13 06:32:42;;;;;;;0.40;0.40;;;;;;;11.34;62.54;95765.50;5099801;28;20520;-55
2023/03/13 06:35:10;;;;;;;4.37;0.73;;;;;;;11.36;60.50;95766.03;5110492;28;20985;-56
2023/03/13 06:37:39;;;;;;;0.60;0.57;;;;;;;11.70;59.70;95768.22;5112413;28;20461;-58
2023/03/13 06:40:10;;;;;;;0.40;0.40;;;;;;;12.25;58.79;95765.53;5101115;28;20476;-58
2023/03/13 06:42:39;;;;;;;0.77;0.60;;;;;;;11.50;57.08;95761.00;5093392;28;20498;-58
2023/03/13 06:45:08;;;;;;;0.70;0.70;;;;;;;11.57;54.12;95763.41;5096762;28;20463;-59
2023/03/13 06:47:37;;;;;;;0.67;0.60;;;;;;;11.63;52.58;95760.50;5105870;28;20736;-60
2023/03/13 06:50:06;;;;;;;0.60;0.43;;;;;;;12.77;50.82;95765.94;5102092;28;20474;-59
2023/03/13 06:52:34;;;;;;;0.50;0.40;;;;;;;13.49;47.93;95766.41;5110742;28;20496;-57
2023/03/13 06:55:12;;;;;;;1.07;0.80;;;;;;;13.44;43.38;95742.47;5111019;28;20432;-57
2023/03/13 06:57:41;;;;;;;1.17;1.13;;;;;;;13.64;44.78;95756.47;5096351;28;21003;-58
2023/03/13 07:00:11;;;;;;;0.40;0.30;;;;;;;13.27;42.47;95758.84;5111295;28;20467;-58
2023/03/13 07:02:39;;;;;;;0.40;0.30;;;;;;;13.46;41.90;95749.13;5110642;28;20467;-58
2023/03/13 07:05:09;;;;;;;0.40;0.37;;;;;;;14.37;39.97;95751.84;5110913;28;20530;-59
2023/03/13 07:07:37;;;;;;;0.40;0.30;;;;;;;14.24;40.87;95749.84;5110914;28;20543;-60
2023/03/13 07:10:06;;;;;;;0.77;0.77;;;;;;;14.13;39.60;95750.22;5113515;28;20935;-60
2023/03/13 07:12:37;;;;;;;0.50;0.50;;;;;;;13.65;40.19;95744.75;5114407;28;20476;-59
2023/03/13 07:15:06;;;;;;;2.10;1.03;;;;;;;12.26;41.39;95697.25;5100433;28;20435;-59
2023/03/13 07:17:35;;;;;;;0.60;0.60;;;;;;;13.23;40.79;95747.16;5114463;28;20471;-59
2023/03/13 07:20:05;;;;;;;0.90;0.30;;;;;;;14.59;37.74;95732.72;5114535;28;20471;-59
2023/03/13 07:22:33;;;;;;;0.50;0.30;;;;;;;14.39;38.62;95735.59;5114180;28;20479;-59
2023/03/13 07:25:02;;;;;;;0.87;0.87;;;;;;;14.47;38.48;95734.97;5114184;28;20461;-59
2023/03/13 07:27:31;;;;;;;2.43;2.10;;;;;;;14.46;39.08;95734.19;5114261;28;20450;-59
2023/03/13 07:30:01;;;;;;;0.87;0.87;;;;;;;15.27;37.32;95739.34;5113919;28;20485;-59
2023/03/13 07:32:31;;;;;;;2.80;1.70;;;;;;;15.05;37.21;95701.69;5114153;28;20978;-60
2023/03/13 07:35:02;;;;;;;0.67;0.67;;;;;;;15.79;37.05;95729.50;5113974;28;20470;-62
2023/03/13 07:37:30;;;;;;;0.90;0.80;;;;;;;15.57;37.10;95729.31;5113531;28;20445;-64
2023/03/13 07:39:58;;;;;;;2.20;0.77;;;;;;;16.21;36.30;95737.38;5114067;28;20468;-66
2023/03/13 07:42:27;;;;;;;1.00;1.00;;;;;;;15.02;36.97;95739.66;5114382;28;20440;-65
2023/03/13 07:44:55;;;;;;;1.53;1.43;;;;;;;15.39;36.52;95722.88;5113522;28;20595;-65
2023/03/13 07:47:25;;;;;;;0.50;0.40;;;;;;;16.81;34.34;95727.44;5094321;28;20948;-63
2023/03/13 07:49:53;;;;;;;0.80;0.80;;;;;;;17.61;33.48;95722.25;5105615;28;20954;-62
2023/03/13 07:52:22;;;;;;;0.70;0.70;;;;;;;18.31;32.28;95724.31;5113971;28;20511;-62
2023/03/13 07:54:50;;;;;;;0.40;0.40;;;;;;;17.88;32.55;95731.28;5113771;28;20471;-63
2023/03/13 07:57:18;;;;;;;1.93;0.57;;;;;;;17.97;33.02;95724.88;5113662;28;20436;-64
2023/03/13 07:59:47;;;;;;;0.50;0.40;;;;;;;17.44;33.38;95722.09;5114067;28;20436;-64
2023/03/13 08:02:15;;;;;;;0.40;0.30;;;;;;;18.19;33.04;95719.50;5113475;28;20530;-61
2023/03/13 08:04:45;;;;;;;1.53;1.53;;;;;;;18.24;32.69;95723.97;5114105;28;20526;-60
2023/03/13 08:07:14;;;;;;;0.50;0.40;;;;;;;18.55;31.45;95723.97;5113717;28;20428;-59
2023/03/13 08:09:42;;;;;;;0.50;0.30;;;;;;;19.66;30.61;95708.13;5113610;28;20446;-59
2023/03/13 08:12:10;;;;;;;0.97;0.40;;;;;;;18.46;30.56;95707.81;5113512;28;20978;-59
2023/03/13 08:14:39;;;;;;;0.50;0.50;;;;;;;18.26;30.58;95705.66;5113218;28;20495;-59
2023/03/13 08:17:07;;;;;;;2.00;0.30;;;;;;;18.56;31.47;95696.84;5113287;28;20900;-58
2023/03/13 08:19:35;;;;;;;1.93;0.67;;;;;;;16.86;32.57;95689.06;5113375;28;20442;-58
2023/03/13 08:22:05;;;;;;;1.93;0.90;;;;;;;17.07;32.70;95698.25;5112170;28;20619;-58
2023/03/13 08:24:33;;;;;;;2.13;1.60;;;;;;;16.08;33.31;95702.56;5112984;28;20535;-57
2023/03/13 08:27:02;;;;;;;0.80;0.40;;;;;;;18.14;32.60;95686.66;5113031;28;20459;-57
2023/03/13 08:29:30;;;;;;;0.40;0.30;;;;;;;18.92;31.39;95685.91;5112551;28;20531;-57
2023/03/13 08:31:58;;;;;;;2.00;0.73;;;;;;;18.18;30.70;95676.88;5111277;28;20837;-57
2023/03/13 08:34:27;;;;;;;0.93;0.60;;;;;;;18.91;30.43;95670.88;5112081;28;20436;-56
2023/03/13 08:36:55;;;;;;;1.43;1.10;;;;;;;16.43;32.59;95686.66;5112428;28;20960;-57
2023/03/13 08:39:25;;;;;;;0.70;0.70;;;;;;;17.53;32.11;95677.41;5112707;28;20456;-56
2023/03/13 08:41:53;;;;;;;0.40;0.40;;;;;;;17.96;31.17;95668.88;5112524;28;21039;-55
2023/03/13 08:44:22;;;;;;;0.80;0.80;;;;;;;18.69;31.31;95665.59;5112900;28;20873;-56
2023/03/13 08:46:50;;;;;;;0.40;0.30;;;;;;;18.79;31.07;95668.81;5111835;28;20500;-56
2023/03/13 08:49:18;;;;;;;0.50;0.40;;;;;;;19.36;30.74;95633.78;5099704;28;20442;-56
2023/03/13 08:51:47;;;;;;;0.50;0.40;;;;;;;19.84;29.14;95658.59;5113067;28;20510;-56
2023/03/13 08:54:15;;;;;;;0.60;0.40;;;;;;;19.88;29.16;95659.56;5112805;28;20440;-56
2023/03/13 08:56:45;;;;;;;0.50;0.50;;;;;;;20.65;28.86;95653.13;5112279;28;20909;-56
2023/03/13 08:59:14;;;;;;;1.03;0.70;;;;;;;20.54;28.81;95666.16;5111849;28;20446;-48
2023/03/13 09:01:42;;;;;;;0.87;0.40;;;;;;;21.79;29.11;95656.31;5112015;28;20475;-48
2023/03/13 09:04:11;;;;;;;0.50;0.40;;;;;;;21.28;26.98;95577.44;5111743;28;20523;-48
2023/03/13 09:06:39;;;;;;;0.60;0.50;;;;;;;20.30;27.82;95665.16;5112242;28;20442;-48
2023/03/13 09:09:08;;;;;;;0.50;0.30;;;;;;;19.89;28.63;95657.63;5112215;28;20444;-48
2023/03/13 09:11:38;;;;;;;0.50;0.40;;;;;;;21.12;28.16;95657.34;5112437;28;20769;-48
2023/03/13 09:14:10;;;;;;;0.43;0.40;;;;;;;19.57;29.45;95650.88;5112168;28;20479;-53
2023/03/13 09:16:39;;;;;;;0.50;0.40;;;;;;;18.94;28.71;95640.69;5112304;28;20445;-54
2023/03/13 09:19:07;;;;;;;0.57;0.37;;;;;;;20.53;28.77;95629.59;5112240;28;20514;-53
2023/03/13 09:21:36;;;;;;;0.67;0.67;;;;;;;20.37;26.46;95651.97;5112161;28;20851;-54
2023/03/13 09:24:05;;;;;;;0.90;0.70;;;;;;;19.63;27.59;95644.25;5112211;28;20981;-54
2023/03/13 09:26:33;;;;;;;0.43;0.40;;;;;;;21.49;26.91;95634.84;5112395;28;20444;-54
2023/03/13 09:29:01;;;;;;;0.40;0.30;;;;;;;21.42;26.90;95634.59;5111687;28;20530;-54
2023/03/13 09:31:33;;;;;;;0.40;0.30;;;;;;;21.88;25.59;95627.41;5111394;28;20474;-53
2023/03/13 09:34:01;;;;;;;1.13;1.13;;;;;;;20.86;26.06;95632.44;5112354;28;20444;-55
2023/03/13 09:36:30;;;;;;;0.50;0.40;;;;;;;21.38;25.93;95620.19;5111752;28;20436;-55
2023/03/13 09:39:00;;;;;;;0.40;0.30;;;;;;;22.69;25.21;95617.38;5111927;28;20960;-55
2023/03/13 09:41:34;;;;;;;0.50;0.40;;;;;;;21.68;25.48;95622.81;5111649;28;20467;-55
2023/03/13 09:44:10;;;;;;;0.40;0.30;;;;;;;22.60;25.85;95621.31;5112364;28;20615;-55
2023/03/13 09:46:45;;;;;;;0.40;0.33;;;;;;;20.14;27.07;95450.34;5111769;28;20432;-55
2023/03/13 09:49:25;;;;;;;0.63;0.50;;;;;;;20.67;26.63;95518.94;5097758;28;20435;-55
2023/03/13 09:51:59;;;;;;;0.47;0.40;;;;;;;20.70;27.27;95609.84;5111814;28;20432;-55
2023/03/13 09:54:34;;;;;;;0.60;0.60;;;;;;;21.33;27.43;95612.28;5111777;28;20998;-55
2023/03/13 09:57:13;;;;;;;0.67;0.43;;;;;;;22.01;25.31;95593.91;5111410;28;20963;-54
2023/03/13 09:59:49;;;;;;;0.83;0.83;;;;;;;22.33;24.32;95590.34;5111619;28;20446;-54
2023/03/13 10:02:27;;;;;;;0.40;0.30;;;;;;;23.26;24.53;95565.81;5111657;28;20506;-55
2023/03/13 10:05:03;;;;;;;0.60;0.47;;;;;;;23.17;23.42;95588.72;5111673;28;20985;-55
2023/03/13 10:07:31;;;;;;;0.83;0.57;;;;;;;21.87;24.17;95582.63;5111265;28;20474;-55
2023/03/13 10:10:01;;;;;;;0.43;0.43;;;;;;;21.73;24.06;95582.13;5111102;28;20478;-55
2023/03/13 10:12:35;;;;;;;0.30;0.30;;;;;;;22.89;25.03;95577.88;5111377;28;20440;-55
2023/03/13 10:15:21;;;;;;;0.40;0.30;;;;;;;20.37;24.81;95582.00;5111494;28;20442;-51
2023/03/13 10:17:51;;;;;;;0.60;0.60;;;;;;;21.38;25.19;95573.56;5111598;28;20522;-51
2023/03/13 10:20:24;;;;;;;0.30;0.30;;;;;;;21.31;24.35;95573.31;5111758;28;20801;-51
2023/03/13 10:22:59;;;;;;;0.60;0.60;;;;;;;22.32;24.05;95567.16;5110985;28;20498;-51
2023/03/13 10:25:32;;;;;;;0.80;0.77;;;;;;;20.81;24.59;95576.03;5111573;28;20467;-51
2023/03/13 10:28:01;;;;;;;0.50;0.50;;;;;;;21.02;24.58;95563.38;5111296;28;20497;-51
2023/03/13 10:30:31;;;;;;;0.40;0.30;;;;;;;21.33;24.25;95571.06;5111308;28;20475;-51
2023/03/13 10:33:17;;;;;;;0.60;0.60;;;;;;;21.92;23.90;95561.63;5111006;28;20440;-51
2023/03/13 10:35:46;;;;;;;0.80;0.80;;;;;;;22.46;23.83;95545.22;5111578;28;20467;-50
2023/03/13 10:38:17;;;;;;;0.93;0.50;;;;;;;21.75;23.85;95552.91;5111133;28;20467;-50
2023/03/13 10:40:57;;;;;;;0.50;0.50;;;;;;;19.84;24.79;95553.69;5111329;28;20513;-51
2023/03/13 10:43:27;;;;;;;0.40;0.30;;;;;;;22.02;24.45;95545.00;5110939;28;20475;-51
2023/03/13 10:45:56;;;;;;;0.40;0.30;;;;;;;23.47;22.73;95522.38;5115150;28;20435;-51
2023/03/13 10:48:29;;;;;;;0.40;0.30;;;;;;;23.61;21.93;95482.16;5101229;28;20790;-51
2023/03/13 10:50:58;;;;;;;0.40;0.30;;;;;;;21.76;24.10;95525.56;5101894;28;20447;-51
2023/03/13 10:53:36;;;;;;;0.60;0.43;;;;;;;22.63;22.69;95518.78;5115096;28;20447;-51
2023/03/13 10:56:11;;;;;;;0.50;0.50;;;;;;;21.84;22.87;95519.28;5115104;28;20534;-51
2023/03/13 10:58:43;;;;;;;0.37;0.27;;;;;;;19.69;24.40;95411.69;5115253;28;20855;-51
2023/03/13 11:01:21;;;;;;;4.00;0.40;;;;;;;20.86;24.02;95479.66;5114836;28;20949;-51
2023/03/13 11:03:53;;;;;;;0.50;0.30;;;;;;;21.03;23.29;95510.25;5114846;28;20550;-51
2023/03/13 11:06:30;;;;;;;0.50;0.40;;;;;;;21.12;23.41;95501.03;5114786;28;21016;-50
2023/03/13 11:09:13;;;;;;;0.40;0.40;;;;;;;23.30;22.78;95487.50;5114312;28;20443;-50
2023/03/13 11:11:47;;;;;;;0.53;0.53;;;;;;;22.08;23.33;95494.28;5114697;28;20439;-51
2023/03/13 11:14:18;;;;;;;0.90;0.57;;;;;;;21.08;23.73;95466.94;5114543;28;20435;-51
2023/03/13 11:16:51;;;;;;;0.40;0.30;;;;;;;20.89;23.25;95489.78;5114773;28;20522;-51
2023/03/13 11:19:44;;;;;;;0.40;0.30;;;;;;;21.11;22.47;95479.78;5114558;28;21093;-51
2023/03/13 11:22:30;;;;;;;0.40;0.33;;;;;;;23.08;22.01;95469.88;5114249;28;20967;-51
2023/03/13 11:25:14;;;;;;;0.50;0.50;;;;;;;23.28;22.36;95455.38;5101208;28;20443;-51
2023/03/13 11:27:53;;;;;;;0.40;0.40;;;;;;;22.01;22.54;95423.88;5113762;28;20546;-50
2023/03/13 11:30:39;;;;;;;0.40;0.40;;;;;;;22.88;22.59;95454.66;5114466;28;20479;-51
2023/03/13 11:33:18;;;;;;;0.40;0.40;;;;;;;23.14;21.77;95444.19;5114129;28;20436;-50
2023/03/13 11:35:54;;;;;;;0.47;0.40;;;;;;;23.28;21.86;95438.34;5114361;28;20444;-50
2023/03/13 11:38:29;;;;;;;0.50;0.40;;;;;;;24.21;21.65;95434.13;5114082;28;20435;-51
2023/03/13 11:41:07;;;;;;;0.47;0.37;;;;;;;22.83;21.91;95440.59;5113602;28;20526;-51
2023/03/13 11:44:05;;;;;;;0.90;0.90;;;;;;;21.88;23.03;95433.09;5113942;28;20471;-57
2023/03/13 11:46:52;;;;;;;0.40;0.30;;;;;;;21.61;22.66;95425.59;5113618;28;20489;-57
2023/03/13 11:49:58;;;;;;;0.40;0.30;;;;;;;22.56;21.73;95424.00;5101566;28;20450;-58
2023/03/13 11:52:39;;;;;;;0.40;0.40;;;;;;;23.12;20.95;95418.63;5098282;28;20439;-58
2023/03/13 11:55:29;;;;;;;0.60;0.57;;;;;;;23.25;22.00;95422.84;5113446;28;20470;-58